sensor_id;sensor_type;location;lat;lon;timestamp;temperature;humidity
75821;DHT22;64454;51.984;9.838;2022-12-24T00:01:38;11.90;99.90
75821;DHT22;64454;51.984;9.838;2022-12-24T00:04:05;11.90;99.90
75821;DHT22;64454;51.984;9.838;2022-12-24T00:06:34;12.00;99.90
75821;DHT22;64454;51.984;9.838;2022-12-24T00:09:01;11.90;99.90
75821;DHT22;64454;51.984;9.838;2022-12-24T00:11:28;11.90;99.90
75821;DHT22;64454;51.984;9.838;2022-12-24T00:13:55;11.90;99.90
75821;DHT22;64454;51.984;9.838;2022-12-24T00:16:22;11.90;99.90
75821;DHT22;64454;51.984;9.838;2022-12-24T00:18:49;11.80;99.90
75821;DHT22;64454;51.984;9.838;2022-12-24T00:21:16;11.80;99.90
75821;DHT22;64454;51.984;9.838;2022-12-24T00:23:44;11.80;99.90
75821;DHT22;64454;51.984;9.838;2022-12-24T00:26:11;11.80;99.90
75821;DHT22;64454;51.984;9.838;2022-12-24T00:28:39;11.80;99.90
75821;DHT22;64454;51.984;9.838;2022-12-24T00:31:07;11.80;99.90
75821;DHT22;64454;51.984;9.838;2022-12-24T00:33:39;11.80;99.90
75821;DHT22;64454;51.984;9.838;2022-12-24T00:36:07;11.80;99.90
75821;DHT22;64454;51.984;9.838;2022-12-24T00:38:34;11.80;99.90
75821;DHT22;64454;51.984;9.838;2022-12-24T00:41:05;11.80;99.90
75821;DHT22;64454;51.984;9.838;2022-12-24T00:43:49;11.50;99.90
75821;DHT22;64454;51.984;9.838;2022-12-24T00:46:16;11.50;99.90
75821;DHT22;64454;51.984;9.838;2022-12-24T00:48:43;11.40;99.90
75821;DHT22;64454;51.984;9.838;2022-12-24T00:51:10;11.40;99.90
75821;DHT22;64454;51.984;9.838;2022-12-24T00:53:36;11.20;99.90
75821;DHT22;64454;51.984;9.838;2022-12-24T00:56:06;11.30;99.90
75821;DHT22;64454;51.984;9.838;2022-12-24T00:58:34;11.30;99.90
75821;DHT22;64454;51.984;9.838;2022-12-24T01:01:01;11.30;99.90
75821;DHT22;64454;51.984;9.838;2022-12-24T01:03:28;11.40;99.90
75821;DHT22;64454;51.984;9.838;2022-12-24T01:06:00;11.40;99.90
75821;DHT22;64454;51.984;9.838;2022-12-24T01:08:26;11.30;99.90
75821;DHT22;64454;51.984;9.838;2022-12-24T01:10:53;11.30;99.90
75821;DHT22;64454;51.984;9.838;2022-12-24T01:13:22;11.40;99.90
75821;DHT22;64454;51.984;9.838;2022-12-24T01:15:48;11.40;99.90
75821;DHT22;64454;51.984;9.838;2022-12-24T01:18:15;11.40;99.90
75821;DHT22;64454;51.984;9.838;2022-12-24T01:20:42;11.50;99.90
75821;DHT22;64454;51.984;9.838;2022-12-24T01:23:09;11.40;99.90
75821;DHT22;64454;51.984;9.838;2022-12-24T01:25:37;11.50;99.90
75821;DHT22;64454;51.984;9.838;2022-12-24T01:28:04;11.40;99.90
75821;DHT22;64454;51.984;9.838;2022-12-24T01:30:32;11.40;99.90
75821;DHT22;64454;51.984;9.838;2022-12-24T01:32:59;11.40;99.90
75821;DHT22;64454;51.984;9.838;2022-12-24T01:35:26;11.30;99.90
75821;DHT22;64454;51.984;9.838;2022-12-24T01:37:53;11.30;99.90
75821;DHT22;64454;51.984;9.838;2022-12-24T01:40:19;11.40;99.90
75821;DHT22;64454;51.984;9.838;2022-12-24T01:43:11;11.20;99.90
75821;DHT22;64454;51.984;9.838;2022-12-24T01:45:55;11.20;99.90
75821;DHT22;64454;51.984;9.838;2022-12-24T01:48:33;11.20;99.90
75821;DHT22;64454;51.984;9.838;2022-12-24T01:51:07;11.20;99.90
75821;DHT22;64454;51.984;9.838;2022-12-24T01:53:45;11.20;99.90
75821;DHT22;64454;51.984;9.838;2022-12-24T01:56:15;11.10;99.90
75821;DHT22;64454;51.984;9.838;2022-12-24T01:58:46;11.20;99.90
75821;DHT22;64454;51.984;9.838;2022-12-24T02:01:19;11.20;99.90
75821;DHT22;64454;51.984;9.838;2022-12-24T02:03:45;11.20;99.90
75821;DHT22;64454;51.984;9.838;2022-12-24T02:06:14;11.20;99.90
75821;DHT22;64454;51.984;9.838;2022-12-24T02:08:43;11.30;99.90
75821;DHT22;64454;51.984;9.838;2022-12-24T02:11:12;11.30;99.90
75821;DHT22;64454;51.984;9.838;2022-12-24T02:13:41;11.30;99.90
75821;DHT22;64454;51.984;9.838;2022-12-24T02:16:21;11.20;99.90
75821;DHT22;64454;51.984;9.838;2022-12-24T02:18:59;11.20;99.90
75821;DHT22;64454;51.984;9.838;2022-12-24T02:21:46;11.20;99.90
75821;DHT22;64454;51.984;9.838;2022-12-24T02:24:27;11.30;99.90
75821;DHT22;64454;51.984;9.838;2022-12-24T02:27:16;11.40;99.90
75821;DHT22;64454;51.984;9.838;2022-12-24T02:30:16;11.40;99.90
75821;DHT22;64454;51.984;9.838;2022-12-24T02:33:00;11.40;99.90
75821;DHT22;64454;51.984;9.838;2022-12-24T02:35:39;11.30;99.90
75821;DHT22;64454;51.984;9.838;2022-12-24T02:38:15;11.20;99.90
75821;DHT22;64454;51.984;9.838;2022-12-24T02:40:48;11.20;99.90
75821;DHT22;64454;51.984;9.838;2022-12-24T02:43:20;11.20;99.90
75821;DHT22;64454;51.984;9.838;2022-12-24T02:45:54;11.20;99.90
75821;DHT22;64454;51.984;9.838;2022-12-24T02:48:25;11.10;99.90
75821;DHT22;64454;51.984;9.838;2022-12-24T02:50:56;11.10;99.90
75821;DHT22;64454;51.984;9.838;2022-12-24T02:53:24;11.00;99.90
75821;DHT22;64454;51.984;9.838;2022-12-24T02:56:02;11.00;99.90
75821;DHT22;64454;51.984;9.838;2022-12-24T02:58:44;10.90;99.90
75821;DHT22;64454;51.984;9.838;2022-12-24T03:01:33;10.80;99.90
75821;DHT22;64454;51.984;9.838;2022-12-24T03:04:11;10.80;99.90
75821;DHT22;64454;51.984;9.838;2022-12-24T03:06:51;10.80;99.90
75821;DHT22;64454;51.984;9.838;2022-12-24T03:09:25;10.80;99.90
75821;DHT22;64454;51.984;9.838;2022-12-24T03:12:01;10.70;99.90
75821;DHT22;64454;51.984;9.838;2022-12-24T03:14:33;10.70;99.90
75821;DHT22;64454;51.984;9.838;2022-12-24T03:17:02;10.80;99.90
75821;DHT22;64454;51.984;9.838;2022-12-24T03:19:30;10.80;99.90
75821;DHT22;64454;51.984;9.838;2022-12-24T03:21:58;10.90;99.90
75821;DHT22;64454;51.984;9.838;2022-12-24T03:24:28;10.80;99.90
75821;DHT22;64454;51.984;9.838;2022-12-24T03:26:56;10.80;99.90
75821;DHT22;64454;51.984;9.838;2022-12-24T03:29:24;10.80;99.90
75821;DHT22;64454;51.984;9.838;2022-12-24T03:31:52;10.80;99.90
75821;DHT22;64454;51.984;9.838;2022-12-24T03:34:27;10.80;99.90
75821;DHT22;64454;51.984;9.838;2022-12-24T03:36:54;10.80;99.90
75821;DHT22;64454;51.984;9.838;2022-12-24T03:39:22;10.80;99.90
75821;DHT22;64454;51.984;9.838;2022-12-24T03:41:48;10.90;99.90
75821;DHT22;64454;51.984;9.838;2022-12-24T03:44:15;10.90;99.90
75821;DHT22;64454;51.984;9.838;2022-12-24T03:46:42;11.00;99.90
75821;DHT22;64454;51.984;9.838;2022-12-24T03:49:09;11.00;99.90
75821;DHT22;64454;51.984;9.838;2022-12-24T03:51:37;10.90;99.90
75821;DHT22;64454;51.984;9.838;2022-12-24T03:54:04;10.90;99.90
75821;DHT22;64454;51.984;9.838;2022-12-24T03:56:31;11.00;99.90
75821;DHT22;64454;51.984;9.838;2022-12-24T03:58:58;11.00;99.90
75821;DHT22;64454;51.984;9.838;2022-12-24T04:01:25;11.00;99.90
75821;DHT22;64454;51.984;9.838;2022-12-24T04:03:52;11.10;99.90
75821;DHT22;64454;51.984;9.838;2022-12-24T04:06:18;11.10;99.90
75821;DHT22;64454;51.984;9.838;2022-12-24T04:08:46;11.00;99.90
75821;DHT22;64454;51.984;9.838;2022-12-24T04:11:14;11.10;99.90
75821;DHT22;64454;51.984;9.838;2022-12-24T04:13:42;11.00;99.90
75821;DHT22;64454;51.984;9.838;2022-12-24T04:16:11;11.00;99.90
75821;DHT22;64454;51.984;9.838;2022-12-24T04:18:39;11.10;99.90
75821;DHT22;64454;51.984;9.838;2022-12-24T04:21:07;11.20;99.90
75821;DHT22;64454;51.984;9.838;2022-12-24T04:23:35;11.10;99.90
75821;DHT22;64454;51.984;9.838;2022-12-24T04:26:06;11.10;99.90
75821;DHT22;64454;51.984;9.838;2022-12-24T04:28:35;11.10;99.90
75821;DHT22;64454;51.984;9.838;2022-12-24T04:31:05;11.10;99.90
75821;DHT22;64454;51.984;9.838;2022-12-24T04:33:34;11.00;99.90
75821;DHT22;64454;51.984;9.838;2022-12-24T04:36:04;10.90;99.90
75821;DHT22;64454;51.984;9.838;2022-12-24T04:38:32;10.80;99.90
75821;DHT22;64454;51.984;9.838;2022-12-24T04:41:01;10.80;99.90
75821;DHT22;64454;51.984;9.838;2022-12-24T04:43:31;10.90;99.90
75821;DHT22;64454;51.984;9.838;2022-12-24T04:46:03;10.90;99.90
75821;DHT22;64454;51.984;9.838;2022-12-24T04:48:31;11.00;99.90
75821;DHT22;64454;51.984;9.838;2022-12-24T04:51:00;10.90;99.90
75821;DHT22;64454;51.984;9.838;2022-12-24T04:53:28;11.00;99.90
75821;DHT22;64454;51.984;9.838;2022-12-24T04:55:56;10.90;99.90
75821;DHT22;64454;51.984;9.838;2022-12-24T04:58:23;10.90;99.90
75821;DHT22;64454;51.984;9.838;2022-12-24T05:00:52;10.90;99.90
75821;DHT22;64454;51.984;9.838;2022-12-24T05:03:19;10.90;99.90
75821;DHT22;64454;51.984;9.838;2022-12-24T05:05:46;10.90;99.90
75821;DHT22;64454;51.984;9.838;2022-12-24T05:08:13;10.90;99.90
75821;DHT22;64454;51.984;9.838;2022-12-24T05:10:40;11.00;99.90
75821;DHT22;64454;51.984;9.838;2022-12-24T05:13:06;11.00;99.90
75821;DHT22;64454;51.984;9.838;2022-12-24T05:15:33;11.10;99.90
75821;DHT22;64454;51.984;9.838;2022-12-24T05:18:01;11.10;99.90
75821;DHT22;64454;51.984;9.838;2022-12-24T05:20:28;11.20;99.90
75821;DHT22;64454;51.984;9.838;2022-12-24T05:22:55;11.10;99.90
75821;DHT22;64454;51.984;9.838;2022-12-24T05:25:39;11.00;99.90
75821;DHT22;64454;51.984;9.838;2022-12-24T05:28:24;11.00;99.90
75821;DHT22;64454;51.984;9.838;2022-12-24T05:30:51;11.00;99.90
75821;DHT22;64454;51.984;9.838;2022-12-24T05:33:19;11.00;99.90
75821;DHT22;64454;51.984;9.838;2022-12-24T05:35:46;11.00;99.90
75821;DHT22;64454;51.984;9.838;2022-12-24T05:38:13;11.00;99.90
75821;DHT22;64454;51.984;9.838;2022-12-24T05:40:39;10.90;99.90
75821;DHT22;64454;51.984;9.838;2022-12-24T05:43:06;10.90;99.90
75821;DHT22;64454;51.984;9.838;2022-12-24T05:45:33;10.90;99.90
75821;DHT22;64454;51.984;9.838;2022-12-24T05:48:00;10.90;99.90
75821;DHT22;64454;51.984;9.838;2022-12-24T05:50:28;10.80;99.90
75821;DHT22;64454;51.984;9.838;2022-12-24T05:52:55;10.80;99.90
75821;DHT22;64454;51.984;9.838;2022-12-24T05:55:21;10.80;99.90
75821;DHT22;64454;51.984;9.838;2022-12-24T05:57:48;10.90;99.90
75821;DHT22;64454;51.984;9.838;2022-12-24T06:00:17;10.90;99.90
75821;DHT22;64454;51.984;9.838;2022-12-24T06:02:45;10.90;99.90
75821;DHT22;64454;51.984;9.838;2022-12-24T06:05:31;11.00;99.90
75821;DHT22;64454;51.984;9.838;2022-12-24T06:08:19;11.00;99.90
75821;DHT22;64454;51.984;9.838;2022-12-24T06:11:07;10.90;93.90
75821;DHT22;64454;51.984;9.838;2022-12-24T06:13:56;10.90;97.60
75821;DHT22;64454;51.984;9.838;2022-12-24T06:16:25;10.90;89.50
75821;DHT22;64454;51.984;9.838;2022-12-24T06:18:52;10.90;98.00
75821;DHT22;64454;51.984;9.838;2022-12-24T06:21:21;11.00;97.40
75821;DHT22;64454;51.984;9.838;2022-12-24T06:23:48;10.90;94.30
75821;DHT22;64454;51.984;9.838;2022-12-24T06:26:17;11.00;85.00
75821;DHT22;64454;51.984;9.838;2022-12-24T06:28:46;11.00;87.00
75821;DHT22;64454;51.984;9.838;2022-12-24T06:31:15;11.00;76.80
75821;DHT22;64454;51.984;9.838;2022-12-24T06:33:43;11.00;75.80
75821;DHT22;64454;51.984;9.838;2022-12-24T06:36:14;11.00;80.70
75821;DHT22;64454;51.984;9.838;2022-12-24T06:38:44;11.20;81.90
75821;DHT22;64454;51.984;9.838;2022-12-24T06:41:11;11.20;68.70
75821;DHT22;64454;51.984;9.838;2022-12-24T06:43:38;11.10;52.70
75821;DHT22;64454;51.984;9.838;2022-12-24T06:46:08;11.10;60.80
75821;DHT22;64454;51.984;9.838;2022-12-24T06:48:35;11.20;43.20
75821;DHT22;64454;51.984;9.838;2022-12-24T06:51:02;11.00;40.00
75821;DHT22;64454;51.984;9.838;2022-12-24T06:53:30;11.00;54.50
75821;DHT22;64454;51.984;9.838;2022-12-24T06:56:02;11.00;50.00
75821;DHT22;64454;51.984;9.838;2022-12-24T06:58:30;11.00;54.80
75821;DHT22;64454;51.984;9.838;2022-12-24T07:00:59;10.90;59.60
75821;DHT22;64454;51.984;9.838;2022-12-24T07:03:27;11.00;65.40
75821;DHT22;64454;51.984;9.838;2022-12-24T07:05:54;11.00;70.70
75821;DHT22;64454;51.984;9.838;2022-12-24T07:08:20;11.00;58.60
75821;DHT22;64454;51.984;9.838;2022-12-24T07:10:47;10.80;46.70
75821;DHT22;64454;51.984;9.838;2022-12-24T07:13:16;10.80;63.80
75821;DHT22;64454;51.984;9.838;2022-12-24T07:15:44;10.80;70.80
75821;DHT22;64454;51.984;9.838;2022-12-24T07:18:11;10.80;63.90
75821;DHT22;64454;51.984;9.838;2022-12-24T07:20:38;10.80;51.90
75821;DHT22;64454;51.984;9.838;2022-12-24T07:23:05;10.80;59.20
75821;DHT22;64454;51.984;9.838;2022-12-24T07:25:31;10.80;67.90
75821;DHT22;64454;51.984;9.838;2022-12-24T07:27:58;10.90;88.10
75821;DHT22;64454;51.984;9.838;2022-12-24T07:30:26;10.90;64.20
75821;DHT22;64454;51.984;9.838;2022-12-24T07:32:53;11.00;66.80
75821;DHT22;64454;51.984;9.838;2022-12-24T07:35:20;10.90;51.20
75821;DHT22;64454;51.984;9.838;2022-12-24T07:37:47;10.80;53.60
75821;DHT22;64454;51.984;9.838;2022-12-24T07:40:14;10.80;62.70
75821;DHT22;64454;51.984;9.838;2022-12-24T07:42:40;10.90;64.90
75821;DHT22;64454;51.984;9.838;2022-12-24T07:45:08;10.80;59.20
75821;DHT22;64454;51.984;9.838;2022-12-24T07:47:37;10.90;58.00
75821;DHT22;64454;51.984;9.838;2022-12-24T07:50:05;10.90;58.90
75821;DHT22;64454;51.984;9.838;2022-12-24T07:52:32;10.90;49.90
75821;DHT22;64454;51.984;9.838;2022-12-24T07:54:59;11.00;57.10
75821;DHT22;64454;51.984;9.838;2022-12-24T07:57:26;11.00;60.20
75821;DHT22;64454;51.984;9.838;2022-12-24T07:59:52;11.20;59.20
75821;DHT22;64454;51.984;9.838;2022-12-24T08:02:19;11.10;45.80
75821;DHT22;64454;51.984;9.838;2022-12-24T08:04:47;11.20;51.00
75821;DHT22;64454;51.984;9.838;2022-12-24T08:07:14;11.10;46.00
75821;DHT22;64454;51.984;9.838;2022-12-24T08:09:41;11.10;41.30
75821;DHT22;64454;51.984;9.838;2022-12-24T08:12:10;11.10;45.00
75821;DHT22;64454;51.984;9.838;2022-12-24T08:14:37;11.20;55.70
75821;DHT22;64454;51.984;9.838;2022-12-24T08:17:03;11.10;51.30
75821;DHT22;64454;51.984;9.838;2022-12-24T08:19:30;11.10;51.10
75821;DHT22;64454;51.984;9.838;2022-12-24T08:21:58;11.10;55.30
75821;DHT22;64454;51.984;9.838;2022-12-24T08:24:25;11.10;63.50
75821;DHT22;64454;51.984;9.838;2022-12-24T08:26:52;11.20;64.70
75821;DHT22;64454;51.984;9.838;2022-12-24T08:29:19;11.30;53.00
75821;DHT22;64454;51.984;9.838;2022-12-24T08:31:45;11.40;40.70
75821;DHT22;64454;51.984;9.838;2022-12-24T08:34:12;11.40;32.70
75821;DHT22;64454;51.984;9.838;2022-12-24T08:36:39;11.30;33.80
75821;DHT22;64454;51.984;9.838;2022-12-24T08:39:08;11.40;41.50
75821;DHT22;64454;51.984;9.838;2022-12-24T08:41:35;11.40;39.80
75821;DHT22;64454;51.984;9.838;2022-12-24T08:44:02;11.50;43.10
75821;DHT22;64454;51.984;9.838;2022-12-24T08:46:29;11.50;49.30
75821;DHT22;64454;51.984;9.838;2022-12-24T08:48:56;11.60;41.70
75821;DHT22;64454;51.984;9.838;2022-12-24T08:51:23;11.60;39.70
75821;DHT22;64454;51.984;9.838;2022-12-24T08:53:50;11.60;38.90
75821;DHT22;64454;51.984;9.838;2022-12-24T08:56:18;11.60;39.10
75821;DHT22;64454;51.984;9.838;2022-12-24T08:58:45;11.50;48.30
75821;DHT22;64454;51.984;9.838;2022-12-24T09:01:15;11.50;63.10
75821;DHT22;64454;51.984;9.838;2022-12-24T09:03:43;11.60;72.10
75821;DHT22;64454;51.984;9.838;2022-12-24T09:06:11;11.60;79.40
75821;DHT22;64454;51.984;9.838;2022-12-24T09:08:38;11.60;70.40
75821;DHT22;64454;51.984;9.838;2022-12-24T09:11:06;11.70;67.10
75821;DHT22;64454;51.984;9.838;2022-12-24T09:13:36;11.70;71.40
75821;DHT22;64454;51.984;9.838;2022-12-24T09:16:04;11.70;75.50
75821;DHT22;64454;51.984;9.838;2022-12-24T09:18:32;11.70;67.60
75821;DHT22;64454;51.984;9.838;2022-12-24T09:21:00;11.70;74.70
75821;DHT22;64454;51.984;9.838;2022-12-24T09:23:28;11.70;74.20
75821;DHT22;64454;51.984;9.838;2022-12-24T09:25:56;11.70;64.10
75821;DHT22;64454;51.984;9.838;2022-12-24T09:28:23;11.60;72.70
75821;DHT22;64454;51.984;9.838;2022-12-24T09:30:59;11.60;82.10
75821;DHT22;64454;51.984;9.838;2022-12-24T09:33:29;11.60;91.40
75821;DHT22;64454;51.984;9.838;2022-12-24T09:35:58;11.60;99.90
75821;DHT22;64454;51.984;9.838;2022-12-24T09:38:26;11.60;99.90
75821;DHT22;64454;51.984;9.838;2022-12-24T09:40:54;11.60;99.90
75821;DHT22;64454;51.984;9.838;2022-12-24T09:43:22;11.50;99.90
75821;DHT22;64454;51.984;9.838;2022-12-24T09:46:05;11.50;99.90
75821;DHT22;64454;51.984;9.838;2022-12-24T09:48:42;11.40;99.90
75821;DHT22;64454;51.984;9.838;2022-12-24T09:51:15;11.30;99.90
75821;DHT22;64454;51.984;9.838;2022-12-24T09:53:54;11.20;99.90
75821;DHT22;64454;51.984;9.838;2022-12-24T09:56:28;11.20;99.90
75821;DHT22;64454;51.984;9.838;2022-12-24T09:58:58;11.20;99.90
75821;DHT22;64454;51.984;9.838;2022-12-24T10:01:31;11.20;99.90
75821;DHT22;64454;51.984;9.838;2022-12-24T10:04:03;11.20;99.90
75821;DHT22;64454;51.984;9.838;2022-12-24T10:06:38;11.20;99.90
75821;DHT22;64454;51.984;9.838;2022-12-24T10:09:15;11.20;99.90
75821;DHT22;64454;51.984;9.838;2022-12-24T10:11:55;11.30;99.90
75821;DHT22;64454;51.984;9.838;2022-12-24T10:14:39;11.40;99.90
75821;DHT22;64454;51.984;9.838;2022-12-24T10:17:34;11.20;99.90
75821;DHT22;64454;51.984;9.838;2022-12-24T10:20:35;11.20;99.90
75821;DHT22;64454;51.984;9.838;2022-12-24T10:23:22;11.20;99.90
75821;DHT22;64454;51.984;9.838;2022-12-24T10:26:04;11.30;99.90
75821;DHT22;64454;51.984;9.838;2022-12-24T10:28:44;11.30;99.90
75821;DHT22;64454;51.984;9.838;2022-12-24T10:31:14;11.30;99.90
75821;DHT22;64454;51.984;9.838;2022-12-24T10:33:44;11.30;99.90
75821;DHT22;64454;51.984;9.838;2022-12-24T10:36:18;11.30;99.90
75821;DHT22;64454;51.984;9.838;2022-12-24T10:38:49;11.30;99.90
75821;DHT22;64454;51.984;9.838;2022-12-24T10:41:16;11.30;99.90
75821;DHT22;64454;51.984;9.838;2022-12-24T10:43:44;11.40;99.90
75821;DHT22;64454;51.984;9.838;2022-12-24T10:46:17;11.30;99.90
75821;DHT22;64454;51.984;9.838;2022-12-24T10:48:52;11.40;99.90
75821;DHT22;64454;51.984;9.838;2022-12-24T10:51:24;11.50;99.90
75821;DHT22;64454;51.984;9.838;2022-12-24T10:54:04;11.50;99.90
75821;DHT22;64454;51.984;9.838;2022-12-24T10:56:39;11.50;99.90
75821;DHT22;64454;51.984;9.838;2022-12-24T10:59:22;11.60;99.90
75821;DHT22;64454;51.984;9.838;2022-12-24T11:01:50;11.40;99.90
75821;DHT22;64454;51.984;9.838;2022-12-24T11:04:22;11.40;99.90
75821;DHT22;64454;51.984;9.838;2022-12-24T11:06:52;11.40;99.90
75821;DHT22;64454;51.984;9.838;2022-12-24T11:09:22;11.50;99.90
75821;DHT22;64454;51.984;9.838;2022-12-24T11:11:50;11.70;99.90
75821;DHT22;64454;51.984;9.838;2022-12-24T11:14:19;11.80;99.90
75821;DHT22;64454;51.984;9.838;2022-12-24T11:16:52;11.90;99.90
75821;DHT22;64454;51.984;9.838;2022-12-24T11:19:29;12.00;99.90
75821;DHT22;64454;51.984;9.838;2022-12-24T11:22:02;12.00;99.90
75821;DHT22;64454;51.984;9.838;2022-12-24T11:24:32;12.00;99.90
75821;DHT22;64454;51.984;9.838;2022-12-24T11:27:26;12.10;99.90
75821;DHT22;64454;51.984;9.838;2022-12-24T11:30:28;12.20;99.90
75821;DHT22;64454;51.984;9.838;2022-12-24T11:33:15;12.30;99.90
75821;DHT22;64454;51.984;9.838;2022-12-24T11:35:53;12.40;99.90
75821;DHT22;64454;51.984;9.838;2022-12-24T11:38:25;12.40;99.90
75821;DHT22;64454;51.984;9.838;2022-12-24T11:41:05;12.30;99.90
75821;DHT22;64454;51.984;9.838;2022-12-24T11:43:41;12.20;99.90
75821;DHT22;64454;51.984;9.838;2022-12-24T11:46:21;12.00;99.90
75821;DHT22;64454;51.984;9.838;2022-12-24T11:49:13;11.90;99.90
75821;DHT22;64454;51.984;9.838;2022-12-24T11:52:01;12.00;99.90
75821;DHT22;64454;51.984;9.838;2022-12-24T11:54:45;11.80;99.90
75821;DHT22;64454;51.984;9.838;2022-12-24T11:57:24;11.90;99.90
75821;DHT22;64454;51.984;9.838;2022-12-24T11:59:56;12.00;99.90
75821;DHT22;64454;51.984;9.838;2022-12-24T12:02:26;12.20;99.90
75821;DHT22;64454;51.984;9.838;2022-12-24T12:04:59;12.40;99.90
75821;DHT22;64454;51.984;9.838;2022-12-24T12:07:34;12.50;81.50
75821;DHT22;64454;51.984;9.838;2022-12-24T12:10:05;12.60;74.90
75821;DHT22;64454;51.984;9.838;2022-12-24T12:12:41;12.80;62.00
75821;DHT22;64454;51.984;9.838;2022-12-24T12:15:13;12.70;51.90
75821;DHT22;64454;51.984;9.838;2022-12-24T12:17:45;12.80;46.00
75821;DHT22;64454;51.984;9.838;2022-12-24T12:20:17;12.80;30.50
75821;DHT22;64454;51.984;9.838;2022-12-24T12:22:54;12.80;45.80
75821;DHT22;64454;51.984;9.838;2022-12-24T12:25:31;12.90;27.40
75821;DHT22;64454;51.984;9.838;2022-12-24T12:28:14;12.70;24.20
75821;DHT22;64454;51.984;9.838;2022-12-24T12:30:55;12.80;24.10
75821;DHT22;64454;51.984;9.838;2022-12-24T12:33:31;12.90;27.60
75821;DHT22;64454;51.984;9.838;2022-12-24T12:36:06;13.00;25.00
75821;DHT22;64454;51.984;9.838;2022-12-24T12:38:37;13.00;14.10
75821;DHT22;64454;51.984;9.838;2022-12-24T12:41:22;12.80;15.10
75821;DHT22;64454;51.984;9.838;2022-12-24T12:44:29;13.00;23.40
75821;DHT22;64454;51.984;9.838;2022-12-24T12:47:22;13.00;5.50
75821;DHT22;64454;51.984;9.838;2022-12-24T12:50:06;12.90;1.00
75821;DHT22;64454;51.984;9.838;2022-12-24T12:53:14;12.90;2.40
75821;DHT22;64454;51.984;9.838;2022-12-24T12:56:03;12.80;9.90
75821;DHT22;64454;51.984;9.838;2022-12-24T12:58:42;13.00;18.70
75821;DHT22;64454;51.984;9.838;2022-12-24T13:01:19;13.00;3.10
75821;DHT22;64454;51.984;9.838;2022-12-24T13:07:23;13.10;1.00
75821;DHT22;64454;51.984;9.838;2022-12-24T13:10:22;13.10;1.00
75821;DHT22;64454;51.984;9.838;2022-12-24T13:13:12;13.00;1.00
75821;DHT22;64454;51.984;9.838;2022-12-24T13:16:12;12.70;1.00
75821;DHT22;64454;51.984;9.838;2022-12-24T13:18:58;12.60;3.90
75821;DHT22;64454;51.984;9.838;2022-12-24T13:21:33;12.60;1.00
75821;DHT22;64454;51.984;9.838;2022-12-24T13:24:05;12.40;1.00
75821;DHT22;64454;51.984;9.838;2022-12-24T13:26:33;12.30;1.00
75821;DHT22;64454;51.984;9.838;2022-12-24T13:32:39;12.20;9.20
75821;DHT22;64454;51.984;9.838;2022-12-24T13:35:34;12.30;14.10
75821;DHT22;64454;51.984;9.838;2022-12-24T13:41:37;12.50;7.10
75821;DHT22;64454;51.984;9.838;2022-12-24T13:44:17;12.50;1.60
75821;DHT22;64454;51.984;9.838;2022-12-24T13:47:04;12.50;3.90
75821;DHT22;64454;51.984;9.838;2022-12-24T13:49:48;12.30;1.00
75821;DHT22;64454;51.984;9.838;2022-12-24T13:52:23;12.30;1.00
75821;DHT22;64454;51.984;9.838;2022-12-24T13:55:06;12.30;1.00
75821;DHT22;64454;51.984;9.838;2022-12-24T13:57:44;12.30;7.60
75821;DHT22;64454;51.984;9.838;2022-12-24T14:00:40;12.20;6.10
75821;DHT22;64454;51.984;9.838;2022-12-24T14:03:23;12.30;9.30
75821;DHT22;64454;51.984;9.838;2022-12-24T14:05:55;12.40;9.00
75821;DHT22;64454;51.984;9.838;2022-12-24T14:08:29;12.20;1.00
75821;DHT22;64454;51.984;9.838;2022-12-24T14:11:12;12.20;4.80
75821;DHT22;64454;51.984;9.838;2022-12-24T14:14:24;12.20;13.80
75821;DHT22;64454;51.984;9.838;2022-12-24T14:16:55;12.30;15.80
75821;DHT22;64454;51.984;9.838;2022-12-24T14:19:29;12.20;1.00
75821;DHT22;64454;51.984;9.838;2022-12-24T14:22:16;12.10;7.40
75821;DHT22;64454;51.984;9.838;2022-12-24T14:24:52;12.20;14.70
75821;DHT22;64454;51.984;9.838;2022-12-24T14:27:27;12.10;4.50
75821;DHT22;64454;51.984;9.838;2022-12-24T14:30:02;12.00;9.40
75821;DHT22;64454;51.984;9.838;2022-12-24T14:32:34;12.00;10.30
75821;DHT22;64454;51.984;9.838;2022-12-24T14:35:13;12.00;11.30
75821;DHT22;64454;51.984;9.838;2022-12-24T14:37:44;11.80;11.20
75821;DHT22;64454;51.984;9.838;2022-12-24T14:40:15;11.80;15.30
75821;DHT22;64454;51.984;9.838;2022-12-24T14:42:50;11.80;16.10
75821;DHT22;64454;51.984;9.838;2022-12-24T14:45:28;11.80;17.80
75821;DHT22;64454;51.984;9.838;2022-12-24T14:48:05;11.70;22.70
75821;DHT22;64454;51.984;9.838;2022-12-24T14:50:53;11.70;18.00
75821;DHT22;64454;51.984;9.838;2022-12-24T14:53:40;11.60;22.30
75821;DHT22;64454;51.984;9.838;2022-12-24T14:56:30;11.60;29.30
75821;DHT22;64454;51.984;9.838;2022-12-24T14:58:57;11.60;22.70
75821;DHT22;64454;51.984;9.838;2022-12-24T15:01:30;11.50;25.80
75821;DHT22;64454;51.984;9.838;2022-12-24T15:04:00;11.50;26.20
75821;DHT22;64454;51.984;9.838;2022-12-24T15:06:32;11.40;28.40
75821;DHT22;64454;51.984;9.838;2022-12-24T15:09:01;11.40;31.50
75821;DHT22;64454;51.984;9.838;2022-12-24T15:11:29;11.30;35.80
75821;DHT22;64454;51.984;9.838;2022-12-24T15:13:57;11.30;41.80
75821;DHT22;64454;51.984;9.838;2022-12-24T15:16:27;11.20;43.50
75821;DHT22;64454;51.984;9.838;2022-12-24T15:18:59;11.20;43.90
75821;DHT22;64454;51.984;9.838;2022-12-24T15:21:33;11.10;47.70
75821;DHT22;64454;51.984;9.838;2022-12-24T15:24:23;11.10;57.30
75821;DHT22;64454;51.984;9.838;2022-12-24T15:26:51;11.10;74.60
75821;DHT22;64454;51.984;9.838;2022-12-24T15:29:21;11.00;59.30
75821;DHT22;64454;51.984;9.838;2022-12-24T15:31:53;11.10;66.00
75821;DHT22;64454;51.984;9.838;2022-12-24T15:34:26;11.00;60.70
75821;DHT22;64454;51.984;9.838;2022-12-24T15:37:02;11.00;59.60
75821;DHT22;64454;51.984;9.838;2022-12-24T15:39:32;11.00;57.70
75821;DHT22;64454;51.984;9.838;2022-12-24T15:41:59;11.00;60.20
75821;DHT22;64454;51.984;9.838;2022-12-24T15:44:41;11.00;64.30
75821;DHT22;64454;51.984;9.838;2022-12-24T15:47:15;11.00;67.90
75821;DHT22;64454;51.984;9.838;2022-12-24T15:49:46;11.00;67.60
75821;DHT22;64454;51.984;9.838;2022-12-24T15:52:18;11.10;59.70
75821;DHT22;64454;51.984;9.838;2022-12-24T15:54:49;11.00;50.60
75821;DHT22;64454;51.984;9.838;2022-12-24T15:57:22;10.90;56.60
75821;DHT22;64454;51.984;9.838;2022-12-24T15:59:52;11.00;56.10
75821;DHT22;64454;51.984;9.838;2022-12-24T16:02:38;11.20;47.50
75821;DHT22;64454;51.984;9.838;2022-12-24T16:05:27;11.30;44.10
75821;DHT22;64454;51.984;9.838;2022-12-24T16:08:02;11.30;33.20
75821;DHT22;64454;51.984;9.838;2022-12-24T16:10:36;11.30;26.40
75821;DHT22;64454;51.984;9.838;2022-12-24T16:13:11;11.30;24.80
75821;DHT22;64454;51.984;9.838;2022-12-24T16:15:46;11.30;24.10
75821;DHT22;64454;51.984;9.838;2022-12-24T16:18:18;11.30;25.10